• Join FlightAware (Why Join?)
  • Login
  • US Flag 
02:39AM EDT


 

Airport Tracker/Info


-or-


 

Live Flight TrackerFlight Track Log ✈ UAL5901 ✈ 08-May-2013 ✈ KLBB - KDEN

Flight Track Log - Related Links

Times and Time Zones

All times are in EDT time to prevent confusion due to time zone crossing. See the UAL5901 flight status page for this flight to view local times or setup timezone preferences in your user account.

Time Position Orientation Groundspeed Altitude Reporting Facility
EDT Latitude Longitude Course Direction KTS MPH feet Rate Location/Type
09:35AM 33.6486 -101.8322 180° South 154 177 3,900  Level Fort Worth Center
09:36AM 33.5967 -101.8322 180° South 197 227 5,700 1,140 Climbing Fort Worth Center
09:37AM 33.5958 -101.9069 269° West 283 326 6,300 1,140 Climbing Fort Worth Center
09:38AM 33.6733 -101.9036 North 300 345 8,000 1,860 Climbing Fort Worth Center
09:39AM 33.7519 -101.9250 347° North 279 321 10,100 1,620 Climbing Fort Worth Center
09:40AM 33.8636 -101.9508 349° North 345 397 11,600 1,500 Climbing Fort Worth Center
09:41AM 33.9525 -101.9731 348° North 354 407 13,400 1,920 Climbing Fort Worth Center
09:42AM 34.0619 -102.0036 347° North 364 419 15,500 1,860 Climbing Fort Worth Center
09:43AM 34.1528 -102.0261 348° North 369 425 17,200 1,800 Climbing Fort Worth Center
09:44AM 34.2644 -102.0597 346° North 369 425 19,100 1,680 Climbing Fort Worth Center
09:46AM 34.4536 -102.1056 349° North 377 434 22,300 1,560 Climbing Albuquerque Center
09:47AM 34.5564 -102.1317 348° North 377 434 23,900 1,560 Climbing Albuquerque Center
09:48AM 34.6614 -102.1581 348° North 382 440 25,500 1,740 Climbing Albuquerque Center
09:49AM 34.7856 -102.1928 347° North 381 438 27,500 1,740 Climbing Albuquerque Center
09:50AM 34.8881 -102.2192 348° North 378 435 29,100 1,500 Climbing Albuquerque Center
09:51AM 34.9886 -102.2461 348° North 372 428 30,600 1,320 Climbing Albuquerque Center
09:52AM 35.0869 -102.2733 347° North 364 419 31,900 660 Climbing Albuquerque Center
09:53AM 35.1919 -102.3006 348° North 374 430 32,000  Climbing Albuquerque Center
09:54AM 35.3067 -102.3319 347° North 403 464 32,000  Level Albuquerque Center
09:55AM 35.4283 -102.3650 348° North 432 497 32,000  Level Albuquerque Center
09:56AM 35.5511 -102.3978 348° North 445 512 32,000  Level Albuquerque Center
09:57AM 35.6739 -102.4314 347° North 447 514 32,000  Level Albuquerque Center
09:58AM 35.7956 -102.4639 348° North 446 513 32,000  Level Albuquerque Center
09:59AM 35.9439 -102.5044 348° North 453 521 32,000  Level Albuquerque Center
10:00AM 36.0681 -102.5378 348° North 455 524 32,000  Level Albuquerque Center
10:01AM 36.1933 -102.5619 351° North 456 525 32,000  Level Albuquerque Center
10:02AM 36.3211 -102.5825 353° North 460 529 32,000  Level Albuquerque Center
10:03AM 36.4492 -102.6022 353° North 462 532 32,000  Level Albuquerque Center
10:04AM 36.5767 -102.6236 352° North 463 533 32,000  Level Albuquerque Center
10:05AM 36.7161 -102.6483 352° North 464 534 32,000  Level Albuquerque Center
10:06AM 36.8394 -102.6683 353° North 466 536 32,000  Level Albuquerque Center
10:07AM 36.9839 -102.6914 353° North 469 540 32,000  Level Albuquerque Center
10:08AM 37.1075 -102.7117 353° North 469 540 32,000  Level Albuquerque Center
10:09AM 37.2311 -102.7331 352° North 468 539 32,000  Level Albuquerque Center
10:10AM 37.3756 -102.7569 353° North 470 541 32,000  Level Albuquerque Center
10:11AM 37.5181 -102.7811 352° North 466 536 32,000  Level Denver Center
10:12AM 37.6394 -102.8178 347° North 469 540 32,000  Level Denver Center
10:13AM 37.7800 -102.8625 346° North 467 537 32,000  Level Denver Center
10:14AM 37.9011 -102.9003 346° North 469 540 32,000  Level Denver Center
10:15AM 38.0403 -102.9442 346° North 472 543 32,000  Level Denver Center
10:17AM 38.1611 -102.9828 346° North 469 540 32,000  Level Denver Center
10:18AM 38.3031 -103.0278 346° North 469 540 32,000  Level Denver Center
10:19AM 38.4175 -103.0875 338° Northwest 466 536 32,000  Level Denver Center
10:20AM 38.5436 -103.1756 331° Northwest 462 532 32,000 -360 Level Denver Center
10:21AM 38.6531 -103.2514 332° Northwest 463 533 31,300 -1,200 Descending Denver Center
10:22AM 38.7600 -103.3272 331° Northwest 460 529 29,600 -1,920 Descending Denver Center
10:23AM 38.8864 -103.4147 332° Northwest 462 532 27,400 -1,980 Descending Denver Center
10:24AM 38.9936 -103.4903 331° Northwest 461 531 25,600 -1,920 Descending Denver Center
10:25AM 39.1181 -103.5806 331° Northwest 460 529 23,500 -1,980 Descending Denver Center
10:26AM 39.2206 -103.6528 331° Northwest 446 513 21,600 -2,100 Descending Denver Center
10:27AM 39.3142 -103.7581 319° Northwest 408 470 19,200 -2,280 Descending Denver Center
10:28AM 39.3689 -103.8794 300° West 409 471 16,900 -1,980 Descending Denver Center
10:29AM 39.4283 -103.9953 304° West 368 423 15,200 -1,620 Descending Denver Center
10:30AM 39.4608 -104.1136 290° West 324 373 13,600 -1,080 Descending Denver Center
10:31AM 39.4892 -104.2189 289° West 312 359 13,000 -480 Descending Denver Center
10:32AM 39.5022 -104.3392 278° West 312 359 12,700 -840 Descending Denver Center
10:33AM 39.5353 -104.4408 293° West 307 353 11,300 -1,380 Descending Denver Center
10:34AM 39.5989 -104.5233 315° West 299 344 9,900 -1,380 Descending Denver Center
10:35AM 39.6606 -104.5839 323° Northwest 282 325 8,500 -1,380 Descending Denver Center
10:36AM 39.7194 -104.6392 324° Northwest 266 306 7,100 -960 Descending Denver Center
10:37AM 39.7692 -104.6617 341° North 183 211 6,600 -660 Descending Denver Center
10:38AM 39.8131 -104.6608 North 163 188 5,800 -600 Descending Denver Center
10:39AM 39.8567 -104.6606 360° North 159 183 5,400 -420 Descending Denver Center
10:41AM 39.8500 -104.6667 180° South  Level FlightAware Approximate
10:48AM 39.8617 -104.6732 180° South  Level Estimated
10:49AM 39.8617 -104.6732 180° South  Level Estimated